createdAt,value
2018-03-26T00:00:11.977Z,99.99
2018-03-26T00:01:11.896Z,99.99
2018-03-26T00:02:11.948Z,99.99
2018-03-26T00:03:11.953Z,99.99
2018-03-26T00:04:11.986Z,99.99
2018-03-26T00:05:11.684Z,99.99
2018-03-26T00:06:11.923Z,99.99
2018-03-26T00:07:11.588Z,99.36
2018-03-26T00:08:11.832Z,99.84
2018-03-26T00:09:11.818Z,98.12
2018-03-26T00:10:11.594Z,99.26
2018-03-26T00:11:11.791Z,98.12
2018-03-26T00:12:11.734Z,98.41
2018-03-26T00:13:11.486Z,97.64
2018-03-26T00:14:11.725Z,97.17
2018-03-26T00:15:11.540Z,96.6
2018-03-26T00:16:11.428Z,96.98
2018-03-26T00:17:11.752Z,96.22
2018-03-26T00:18:11.666Z,96.79
2018-03-26T00:19:11.749Z,96.03
2018-03-26T00:20:11.620Z,95.27
2018-03-26T00:21:11.601Z,94.6
2018-03-26T00:22:11.584Z,95.08
2018-03-26T00:23:11.563Z,95.08
2018-03-26T00:24:11.550Z,95.36
2018-03-26T00:25:11.530Z,93.94
2018-03-26T00:26:11.245Z,94.32
2018-03-26T00:27:11.632Z,93.32
2018-03-26T00:28:11.225Z,93.27
2018-03-26T00:29:11.480Z,93.37
2018-03-26T00:30:11.449Z,93.27
2018-03-26T00:31:11.432Z,93.51
2018-03-26T00:32:11.432Z,94.03
2018-03-26T00:33:11.388Z,93.32
2018-03-26T00:34:11.098Z,92.51
2018-03-26T00:35:11.355Z,92.75
2018-03-26T00:36:11.065Z,91.13
2018-03-26T00:37:11.426Z,91.18
2018-03-26T00:38:11.295Z,90.66
2018-03-26T00:39:11.045Z,89.18
2018-03-26T00:40:10.993Z,89.33
2018-03-26T00:41:11.270Z,88.85
2018-03-26T00:42:11.306Z,89.71
2018-03-26T00:43:11.279Z,87.52
2018-03-26T00:44:11.245Z,88.28
2018-03-26T00:45:10.903Z,88.38
2018-03-26T00:46:11.151Z,88.09
2018-03-26T00:47:11.133Z,88.85
2018-03-26T00:48:10.848Z,87.9
2018-03-26T00:49:11.168Z,87.81
2018-03-26T00:50:11.076Z,88.28
2018-03-26T00:51:11.059Z,87.62
2018-03-26T00:52:10.778Z,87.05
2018-03-26T00:53:11.029Z,87.05
2018-03-26T00:54:10.737Z,87.05
2018-03-26T00:55:10.723Z,87.24
2018-03-26T00:56:11.087Z,86.47
2018-03-26T00:57:10.683Z,87.24
2018-03-26T00:58:10.666Z,86.57
2018-03-26T00:59:10.681Z,86.29
2018-03-26T01:00:10.905Z,85.34
2018-03-26T01:01:10.612Z,85.24
2018-03-26T01:02:10.857Z,84.95
2018-03-26T01:03:10.575Z,84.48
2018-03-26T01:04:10.557Z,85.62
2018-03-26T01:05:10.538Z,84.67
2018-03-26T01:06:10.859Z,85.24
2018-03-26T01:07:10.602Z,85.43
2018-03-26T01:08:10.787Z,85.05
2018-03-26T01:09:10.804Z,85.24
2018-03-26T01:10:10.522Z,84.77
2018-03-26T01:11:10.731Z,85.05
2018-03-26T01:12:10.676Z,84.2
2018-03-26T01:13:10.706Z,84.39
2018-03-26T01:14:10.643Z,84.48
2018-03-26T01:15:10.672Z,83.62
2018-03-26T01:16:10.337Z,83.82
2018-03-26T01:17:10.592Z,84.01
2018-03-26T01:18:10.618Z,84.48
2018-03-26T01:19:10.560Z,84.1
2018-03-26T01:20:10.339Z,84.67
2018-03-26T01:21:10.515Z,83.62
2018-03-26T01:22:10.494Z,83.62
2018-03-26T01:23:10.568Z,83.72
2018-03-26T01:24:10.193Z,83.44
2018-03-26T01:25:10.436Z,83.53
2018-03-26T01:26:10.195Z,83.82
2018-03-26T01:27:10.396Z,83.44
2018-03-26T01:28:10.382Z,84.01
2018-03-26T01:29:10.099Z,83.34
2018-03-26T01:30:10.091Z,84.1
2018-03-26T01:31:10.062Z,82.87
2018-03-26T01:32:10.311Z,82.96
2018-03-26T01:33:10.025Z,83.44
2018-03-26T01:34:10.272Z,83.82
2018-03-26T01:35:09.999Z,82.87
2018-03-26T01:36:10.235Z,82.1
2018-03-26T01:37:10.257Z,82.68
2018-03-26T01:38:09.958Z,83.53
2018-03-26T01:39:10.182Z,83.15
2018-03-26T01:40:10.164Z,83.15
2018-03-26T01:41:10.140Z,83.06
2018-03-26T01:42:09.861Z,82.96
2018-03-26T01:43:09.871Z,82.96
2018-03-26T01:44:10.143Z,83.44
2018-03-26T01:45:10.078Z,83.82
2018-03-26T01:46:10.051Z,83.72
2018-03-26T01:47:10.034Z,82.39
2018-03-26T01:48:10.057Z,82.96
2018-03-26T01:49:09.999Z,82.96
2018-03-26T01:50:10.044Z,82.77
2018-03-26T01:51:09.723Z,82.1
2018-03-26T01:52:09.676Z,82.96
2018-03-26T01:53:09.942Z,83.53
2018-03-26T01:54:09.660Z,83.62
2018-03-26T01:55:09.623Z,84.2
2018-03-26T01:56:09.874Z,83.44
2018-03-26T01:57:09.623Z,83.44
2018-03-26T01:58:09.565Z,83.62
2018-03-26T01:59:09.548Z,83.34
2018-03-26T02:00:09.562Z,83.53
2018-03-26T02:01:09.508Z,84.01
2018-03-26T02:02:09.490Z,84.1
2018-03-26T02:03:09.769Z,84.39
2018-03-26T02:04:09.453Z,84.82
2018-03-26T02:05:09.436Z,84.01
2018-03-26T02:06:09.414Z,84.01
2018-03-26T02:07:09.401Z,84.44
2018-03-26T02:08:09.668Z,84.67
2018-03-26T02:09:09.633Z,84.63
2018-03-26T02:10:09.607Z,84.82
2018-03-26T02:11:09.605Z,84.34
2018-03-26T02:12:09.306Z,84.53
2018-03-26T02:13:09.547Z,84.82
2018-03-26T02:14:09.266Z,84.63
2018-03-26T02:15:09.509Z,85.01
2018-03-26T02:16:09.492Z,84.72
2018-03-26T02:17:09.477Z,83.78
2018-03-26T02:18:09.190Z,84.34
2018-03-26T02:19:09.179Z,84.82
2018-03-26T02:20:09.151Z,84.91
2018-03-26T02:21:09.400Z,84.34
2018-03-26T02:22:09.390Z,84.34
2018-03-26T02:23:09.367Z,84.34
2018-03-26T02:24:09.354Z,84.16
2018-03-26T02:25:09.058Z,84.16
2018-03-26T02:26:09.308Z,84.63
2018-03-26T02:27:09.025Z,84.25
2018-03-26T02:28:09.004Z,84.06
2018-03-26T02:29:09.254Z,83.87
2018-03-26T02:30:08.973Z,83.49
2018-03-26T02:31:08.948Z,84.16
2018-03-26T02:32:08.931Z,84.25
2018-03-26T02:33:08.912Z,83.87
2018-03-26T02:34:08.898Z,83.78
2018-03-26T02:35:09.153Z,83.59
2018-03-26T02:36:09.118Z,83.78
2018-03-26T02:37:09.104Z,83.68
2018-03-26T02:38:08.815Z,83.3
2018-03-26T02:39:09.075Z,83.97
2018-03-26T02:40:09.048Z,83.78
2018-03-26T02:41:09.040Z,83.68
2018-03-26T02:42:08.741Z,83.49
2018-03-26T02:43:08.989Z,84.25
2018-03-26T02:44:09.082Z,83.49
2018-03-26T02:45:08.958Z,84.16
2018-03-26T02:46:08.938Z,83.01
2018-03-26T02:47:08.721Z,83.68
2018-03-26T02:48:08.901Z,83.39
2018-03-26T02:49:08.884Z,82.35
2018-03-26T02:50:08.594Z,83.49
2018-03-26T02:51:08.848Z,83.59
2018-03-26T02:52:08.847Z,83.3
2018-03-26T02:53:08.826Z,83.39
2018-03-26T02:54:08.524Z,82.64
2018-03-26T02:55:08.515Z,83.3
2018-03-26T02:56:08.747Z,82.82
2018-03-26T02:57:08.463Z,82.26
2018-03-26T02:58:08.481Z,82.26
2018-03-26T02:59:08.806Z,82.64
2018-03-26T03:00:08.403Z,81.49
2018-03-26T03:01:08.385Z,82.35
2018-03-26T03:02:08.634Z,82.35
2018-03-26T03:03:08.356Z,81.02
2018-03-26T03:04:08.332Z,81.68
2018-03-26T03:05:08.314Z,81.21
2018-03-26T03:06:08.580Z,81.21
2018-03-26T03:07:08.547Z,80.64
2018-03-26T03:08:08.520Z,81.12
2018-03-26T03:09:08.497Z,80.55
2018-03-26T03:10:08.484Z,81.12
2018-03-26T03:11:08.252Z,80.55
2018-03-26T03:12:08.454Z,80.93
2018-03-26T03:13:08.431Z,80.16
2018-03-26T03:14:08.140Z,80.07
2018-03-26T03:15:08.394Z,80.74
2018-03-26T03:16:08.110Z,79.69
2018-03-26T03:17:08.348Z,79.5
2018-03-26T03:18:08.333Z,79.41
2018-03-26T03:19:08.321Z,79.22
2018-03-26T03:20:08.026Z,79.41
2018-03-26T03:21:08.007Z,79.12
2018-03-26T03:22:07.988Z,79.6
2018-03-26T03:23:08.248Z,78.83
2018-03-26T03:24:07.952Z,78.64
2018-03-26T03:25:07.936Z,78.93
2018-03-26T03:26:08.178Z,79.69
2018-03-26T03:27:08.013Z,78.83
2018-03-26T03:28:07.876Z,79.74
2018-03-26T03:29:07.879Z,79.31
2018-03-26T03:30:08.174Z,79.5
2018-03-26T03:31:07.820Z,78.83
2018-03-26T03:32:07.816Z,79.31
2018-03-26T03:33:07.777Z,78.89
2018-03-26T03:34:07.763Z,79.22
2018-03-26T03:35:07.858Z,79.79
2018-03-26T03:36:07.727Z,80.03
2018-03-26T03:37:07.731Z,78.8
2018-03-26T03:38:07.686Z,78.8
2018-03-26T03:39:07.942Z,79.17
2018-03-26T03:40:07.925Z,79.46
2018-03-26T03:41:07.991Z,79.27
2018-03-26T03:42:07.610Z,79.27
2018-03-26T03:43:07.644Z,78.8
2018-03-26T03:44:07.928Z,78.51
2018-03-26T03:45:07.870Z,78.89
2018-03-26T03:46:07.531Z,78.89
2018-03-26T03:47:07.514Z,79.27
2018-03-26T03:48:07.498Z,78.89
2018-03-26T03:49:07.592Z,77.66
2018-03-26T03:50:07.761Z,78.89
2018-03-26T03:51:07.614Z,78.8
2018-03-26T03:52:07.683Z,78.99
2018-03-26T03:53:07.663Z,77.66
2018-03-26T03:54:07.644Z,77.56
2018-03-26T03:55:07.387Z,76.32
2018-03-26T03:56:07.346Z,76.42
2018-03-26T03:57:07.592Z,76.71
2018-03-26T03:58:07.568Z,76.61
2018-03-26T03:59:07.582Z,76.61
2018-03-26T04:00:07.351Z,76.14
2018-03-26T04:01:07.522Z,75.19
2018-03-26T04:02:07.756Z,75.28
2018-03-26T04:03:07.467Z,75.38
2018-03-26T04:04:07.455Z,75
2018-03-26T04:05:07.168Z,75.95
2018-03-26T04:06:07.513Z,76.23
2018-03-26T04:07:07.446Z,75.67
2018-03-26T04:08:07.150Z,76.14
2018-03-26T04:09:07.090Z,74.9
2018-03-26T04:10:07.369Z,75.09
2018-03-26T04:11:07.054Z,75.09
2018-03-26T04:12:07.043Z,74.9
2018-03-26T04:13:07.050Z,75.28
2018-03-26T04:14:07.082Z,75.28
2018-03-26T04:15:07.072Z,75.38
2018-03-26T04:16:06.958Z,75.38
2018-03-26T04:17:07.231Z,76.23
2018-03-26T04:18:06.916Z,76.61
2018-03-26T04:19:06.905Z,76.23
2018-03-26T04:20:06.881Z,76.42
2018-03-26T04:21:06.919Z,76.42
2018-03-26T04:22:07.131Z,76.9
2018-03-26T04:23:06.823Z,76.99
2018-03-26T04:24:06.802Z,77.24
2018-03-26T04:25:07.048Z,76.76
2018-03-26T04:26:06.763Z,76.76
2018-03-26T04:27:06.743Z,77.14
2018-03-26T04:28:06.724Z,77.14
2018-03-26T04:29:06.705Z,77.24
2018-03-26T04:30:06.684Z,77.52
2018-03-26T04:31:06.679Z,77.71
2018-03-26T04:32:07.061Z,77.9
2018-03-26T04:33:06.897Z,77.71
2018-03-26T04:34:06.880Z,77.52
2018-03-26T04:35:06.856Z,78.09
2018-03-26T04:36:06.838Z,77.52
2018-03-26T04:37:06.578Z,77.71
2018-03-26T04:38:06.560Z,78
2018-03-26T04:39:06.783Z,77.71
2018-03-26T04:40:06.790Z,77.81
2018-03-26T04:41:06.497Z,77.71
2018-03-26T04:42:06.452Z,77.62
2018-03-26T04:43:06.699Z,77.71
2018-03-26T04:44:06.407Z,77.05
2018-03-26T04:45:06.397Z,77.24
2018-03-26T04:46:06.375Z,76.39
2018-03-26T04:47:06.355Z,76.57
2018-03-26T04:48:06.598Z,75.05
2018-03-26T04:49:06.642Z,75.24
2018-03-26T04:50:06.294Z,74.77
2018-03-26T04:51:06.274Z,74.58
2018-03-26T04:52:06.516Z,74.2
2018-03-26T04:53:06.298Z,74.2
2018-03-26T04:54:06.479Z,74.68
2018-03-26T04:55:06.371Z,73.72
2018-03-26T04:56:06.509Z,73.16
2018-03-26T04:57:06.416Z,72.3
2018-03-26T04:58:06.561Z,71.92
2018-03-26T04:59:06.528Z,71.55
2018-03-26T05:00:06.156Z,71.73
2018-03-26T05:01:06.076Z,71.26
2018-03-26T05:02:06.323Z,70.4
2018-03-26T05:03:06.318Z,70.4
2018-03-26T05:04:06.468Z,69.84
2018-03-26T05:05:06.331Z,69.55
2018-03-26T05:06:06.248Z,68.04
2018-03-26T05:07:06.250Z,68.51
2018-03-26T05:08:06.200Z,68.13
2018-03-26T05:09:05.922Z,67.75
2018-03-26T05:10:06.168Z,66.89
2018-03-26T05:11:06.146Z,66.89
2018-03-26T05:12:06.128Z,66.04
2018-03-26T05:13:06.103Z,64.81
2018-03-26T05:14:06.087Z,64.9
2018-03-26T05:15:05.800Z,64.9
2018-03-26T05:16:06.046Z,65.47
2018-03-26T05:17:06.036Z,64.81
2018-03-26T05:18:05.792Z,64.52
2018-03-26T05:19:05.989Z,64.43
2018-03-26T05:20:05.967Z,64.52
2018-03-26T05:21:05.944Z,63.48
2018-03-26T05:22:05.660Z,63.48
2018-03-26T05:23:05.902Z,63.48
2018-03-26T05:24:05.892Z,63.67
2018-03-26T05:25:05.866Z,64.14
2018-03-26T05:26:05.857Z,63.29
2018-03-26T05:27:05.824Z,63.57
2018-03-26T05:28:05.813Z,63.76
2018-03-26T05:29:05.524Z,63.48
2018-03-26T05:30:05.504Z,63.76
2018-03-26T05:31:05.545Z,63.39
2018-03-26T05:32:05.768Z,63.79
2018-03-26T05:33:05.710Z,63.39
2018-03-26T05:34:05.701Z,63.42
2018-03-26T05:35:05.408Z,63.89
2018-03-26T05:36:05.401Z,63.98
2018-03-26T05:37:05.639Z,64.37
2018-03-26T05:38:05.644Z,64.46
2018-03-26T05:39:05.325Z,64.37
2018-03-26T05:40:05.573Z,64.46
2018-03-26T05:41:05.287Z,64.94
2018-03-26T05:42:05.269Z,64.56
2018-03-26T05:43:05.250Z,64.84
2018-03-26T05:44:05.492Z,63.98
2018-03-26T05:45:05.472Z,63.51
2018-03-26T05:46:05.587Z,64.08
2018-03-26T05:47:05.174Z,64.17
2018-03-26T05:48:05.154Z,63.79
2018-03-26T05:49:05.131Z,63.98
2018-03-26T05:50:05.381Z,63.42
2018-03-26T05:51:05.357Z,63.04
2018-03-26T05:52:05.343Z,62.18
2018-03-26T05:53:05.323Z,61.71
2018-03-26T05:54:05.039Z,61.33
2018-03-26T05:55:05.289Z,61.99
2018-03-26T05:56:05.275Z,61.8
2018-03-26T05:57:05.251Z,61.14
2018-03-26T05:58:05.226Z,61.71
2018-03-26T05:59:04.939Z,61.9
2018-03-26T06:00:05.181Z,62.08
2018-03-26T06:01:05.164Z,62.18
2018-03-26T06:02:05.434Z,61.99
2018-03-26T06:03:05.179Z,62.08
2018-03-26T06:04:05.130Z,62.37
2018-03-26T06:05:04.888Z,62.08
2018-03-26T06:06:05.135Z,62.27
2018-03-26T06:07:05.196Z,62.37
2018-03-26T06:08:05.036Z,62.27
2018-03-26T06:09:05.010Z,62.18
2018-03-26T06:10:04.723Z,62.37
2018-03-26T06:11:04.969Z,62.18
2018-03-26T06:12:04.690Z,62.46
2018-03-26T06:13:04.677Z,63.13
2018-03-26T06:14:04.657Z,62.85
2018-03-26T06:15:04.624Z,62.75
2018-03-26T06:16:04.614Z,62.56
2018-03-26T06:17:04.876Z,62.75
2018-03-26T06:18:04.572Z,62.75
2018-03-26T06:19:04.586Z,62.75
2018-03-26T06:20:04.528Z,62.94
2018-03-26T06:21:04.802Z,62.85
2018-03-26T06:22:04.839Z,62.75
2018-03-26T06:23:04.776Z,62.75
2018-03-26T06:24:04.730Z,62.66
2018-03-26T06:25:04.700Z,63.42
2018-03-26T06:26:04.683Z,63.7
2018-03-26T06:27:04.662Z,63.79
2018-03-26T06:28:04.650Z,63.51
2018-03-26T06:29:04.626Z,63.42
2018-03-26T06:30:04.606Z,62.56
2018-03-26T06:31:04.317Z,62.75
2018-03-26T06:32:04.298Z,63.51
2018-03-26T06:33:04.549Z,63.51
2018-03-26T06:34:04.259Z,63.32
2018-03-26T06:35:04.241Z,63.42
2018-03-26T06:36:04.499Z,63.51
2018-03-26T06:37:04.470Z,63.79
2018-03-26T06:38:04.553Z,63.79
2018-03-26T06:39:04.170Z,64.37
2018-03-26T06:40:04.421Z,64.46
2018-03-26T06:41:04.396Z,64.46
2018-03-26T06:42:04.108Z,64.94
2018-03-26T06:43:04.354Z,64.56
2018-03-26T06:44:04.107Z,64.65
2018-03-26T06:45:04.388Z,65.03
2018-03-26T06:46:04.360Z,64.84
2018-03-26T06:47:04.278Z,65.03
2018-03-26T06:48:04.000Z,64.84
2018-03-26T06:49:03.978Z,64.75
2018-03-26T06:50:04.034Z,64.94
2018-03-26T06:51:04.199Z,64.46
2018-03-26T06:52:04.268Z,64.37
2018-03-26T06:53:04.180Z,64.84
2018-03-26T06:54:04.145Z,64.65
2018-03-26T06:55:03.856Z,64.65
2018-03-26T06:56:04.138Z,64.27
2018-03-26T06:57:03.819Z,63.98
2018-03-26T06:58:04.068Z,64.17
2018-03-26T06:59:04.053Z,63.73
2018-03-26T07:00:04.033Z,63.92
2018-03-26T07:01:03.744Z,64.27
2018-03-26T07:02:03.988Z,64.84
2018-03-26T07:03:03.977Z,64.59
2018-03-26T07:04:03.954Z,64.87
2018-03-26T07:05:03.938Z,65.54
2018-03-26T07:06:03.917Z,67.06
2018-03-26T07:07:03.629Z,67.72
2018-03-26T07:08:03.609Z,67.72
2018-03-26T07:09:03.867Z,68.1
2018-03-26T07:10:03.576Z,69.05
2018-03-26T07:11:03.817Z,70.48
2018-03-26T07:12:03.804Z,70.48
2018-03-26T07:13:03.517Z,70.67
2018-03-26T07:14:03.864Z,71.52
2018-03-26T07:15:03.831Z,72.95
2018-03-26T07:16:03.461Z,73.23
2018-03-26T07:17:03.722Z,74.47
2018-03-26T07:18:03.545Z,74.66
2018-03-26T07:19:03.752Z,75.13
2018-03-26T07:20:03.649Z,74.85
2018-03-26T07:21:03.369Z,74.75
2018-03-26T07:22:03.350Z,74.75
2018-03-26T07:23:03.668Z,75.23
2018-03-26T07:24:03.586Z,75.79
2018-03-26T07:25:03.563Z,76.18
2018-03-26T07:26:03.319Z,76.27
2018-03-26T07:27:03.525Z,76.18
2018-03-26T07:28:03.554Z,76.93
2018-03-26T07:29:03.486Z,76.93
2018-03-26T07:30:03.208Z,77.73
2018-03-26T07:31:03.449Z,78.11
2018-03-26T07:32:03.433Z,77.45
2018-03-26T07:33:03.421Z,78.4
2018-03-26T07:34:03.133Z,77.83
2018-03-26T07:35:03.112Z,78.88
2018-03-26T07:36:03.368Z,82.29
2018-03-26T07:37:03.339Z,81.82
2018-03-26T07:38:03.060Z,82.39
2018-03-26T07:39:03.044Z,85.05
2018-03-26T07:40:03.288Z,84.67
2018-03-26T07:41:03.006Z,84.77
2018-03-26T07:42:03.104Z,84.95
2018-03-26T07:43:03.288Z,86
2018-03-26T07:44:03.221Z,86.57
2018-03-26T07:45:03.204Z,87.81
2018-03-26T07:46:02.917Z,89.23
2018-03-26T07:47:03.181Z,90.19
2018-03-26T07:48:03.150Z,89.52
2018-03-26T07:49:03.013Z,88.28
2018-03-26T07:50:02.891Z,88.04
2018-03-26T07:51:03.100Z,89.94
2018-03-26T07:52:03.196Z,88.71
2018-03-26T07:53:02.870Z,88.8
2018-03-26T07:54:03.099Z,90.33
2018-03-26T07:55:03.074Z,92.41
2018-03-26T07:56:03.018Z,93.75
2018-03-26T07:57:03.141Z,92.41
2018-03-26T07:58:02.991Z,92.32
2018-03-26T07:59:02.694Z,93.65
2018-03-26T08:00:02.683Z,96.31
2018-03-26T08:01:02.925Z,93.27
2018-03-26T08:02:03.139Z,94.22
2018-03-26T08:03:02.689Z,95.56
2018-03-26T08:04:02.895Z,96.98
2018-03-26T08:05:02.866Z,98.31
2018-03-26T08:06:03.166Z,99.22
2018-03-26T08:07:02.827Z,97.79
2018-03-26T08:08:02.864Z,96.03
2018-03-26T08:09:02.527Z,98.08
2018-03-26T08:10:02.633Z,99.12
2018-03-26T08:11:02.761Z,97.79
2018-03-26T08:12:02.744Z,98.83
2018-03-26T08:13:02.726Z,98.17
2018-03-26T08:14:02.715Z,98.27
2018-03-26T08:15:02.717Z,98.27
2018-03-26T08:16:02.417Z,97.31
2018-03-26T08:17:02.525Z,99.79
2018-03-26T08:18:02.430Z,99.88
2018-03-26T08:19:02.659Z,98.27
2018-03-26T08:20:02.355Z,98.93
2018-03-26T08:21:02.361Z,99.99
2018-03-26T08:22:02.341Z,99.99
2018-03-26T08:23:02.568Z,99.99
2018-03-26T08:24:02.594Z,99.99
2018-03-26T08:25:02.547Z,99.99
2018-03-26T08:26:02.580Z,99.99
2018-03-26T08:27:02.241Z,99.99
2018-03-26T08:28:02.226Z,99.99
2018-03-26T08:29:02.480Z,99.99
2018-03-26T08:30:02.463Z,99.99
2018-03-26T08:31:02.518Z,99.99
2018-03-26T08:32:02.442Z,99.99
2018-03-26T08:33:02.161Z,99.99
2018-03-26T08:34:02.415Z,99.99
2018-03-26T08:35:02.140Z,99.99
2018-03-26T08:36:02.409Z,99.96
2018-03-26T08:37:02.117Z,95.61
2018-03-26T08:38:02.371Z,93.54
2018-03-26T08:39:02.089Z,87.27
2018-03-26T08:40:02.350Z,85.25
2018-03-26T08:41:02.079Z,80.56
2018-03-26T08:42:02.331Z,82.57
2018-03-26T08:43:02.362Z,84.88
2018-03-26T08:44:02.051Z,82.19
2018-03-26T08:45:02.297Z,81.81
2018-03-26T08:46:02.291Z,81.38
2018-03-26T08:47:02.278Z,82.34
2018-03-26T08:48:02.006Z,82.06
2018-03-26T08:49:02.256Z,82.24
2018-03-26T08:50:02.030Z,81.92
2018-03-26T08:51:01.974Z,81.21
2018-03-26T08:52:01.975Z,83.22
2018-03-26T08:53:02.227Z,86.33
2018-03-26T08:54:01.962Z,85.94
2018-03-26T08:55:02.206Z,87
2018-03-26T08:56:01.932Z,87.95
2018-03-26T08:57:01.924Z,86.9
2018-03-26T08:58:01.914Z,89.15
2018-03-26T08:59:01.918Z,93.79
2018-03-26T09:00:01.902Z,95.41
2018-03-26T09:01:01.894Z,94.89
2018-03-26T09:02:02.151Z,92.21
2018-03-26T09:03:02.153Z,90.25
2018-03-26T09:04:01.880Z,91.02
2018-03-26T09:05:01.867Z,90.39
2018-03-26T09:06:02.134Z,90.49
2018-03-26T09:07:01.848Z,94.07
2018-03-26T09:08:02.111Z,93.6
2018-03-26T09:09:02.108Z,96.46
2018-03-26T09:10:02.101Z,92.79
2018-03-26T09:11:01.822Z,96.03
2018-03-26T09:12:01.832Z,98.57
2018-03-26T09:13:02.115Z,94.65
2018-03-26T09:14:02.073Z,91.5
2018-03-26T09:15:02.075Z,90.97
2018-03-26T09:16:01.787Z,92.4
2018-03-26T09:17:01.782Z,89.39
2018-03-26T09:18:02.064Z,86.61
2018-03-26T09:19:01.764Z,86.18
2018-03-26T09:20:01.760Z,85.13
2018-03-26T09:21:01.750Z,85.51
2018-03-26T09:22:02.083Z,84.59
2018-03-26T09:23:02.006Z,83.26
2018-03-26T09:24:01.727Z,81.05
2018-03-26T09:25:01.736Z,82.43
2018-03-26T09:26:02.046Z,81.29
2018-03-26T09:27:01.977Z,82.3
2018-03-26T09:28:01.697Z,82.64
2018-03-26T09:29:01.961Z,82.59
2018-03-26T09:30:02.152Z,81.05
2018-03-26T09:31:01.948Z,82.87
2018-03-26T09:32:01.938Z,81.68
2018-03-26T09:33:01.962Z,81.4
2018-03-26T09:34:01.922Z,82.74
2018-03-26T09:35:01.645Z,81.11
2018-03-26T09:36:02.006Z,81.21
2018-03-26T09:37:01.899Z,78.72
2018-03-26T09:38:01.626Z,81.74
2018-03-26T09:39:01.622Z,84.03
2018-03-26T09:40:01.879Z,82.31
2018-03-26T09:41:01.600Z,82.41
2018-03-26T09:42:01.869Z,82.12
2018-03-26T09:43:01.860Z,81.36
2018-03-26T09:44:01.844Z,82.7
2018-03-26T09:45:01.834Z,83.75
2018-03-26T09:46:01.826Z,82.89
2018-03-26T09:47:01.818Z,83.46
2018-03-26T09:48:01.814Z,85.52
2018-03-26T09:49:01.550Z,85.14
2018-03-26T09:50:01.789Z,86.53
2018-03-26T09:51:01.796Z,85.96
2018-03-26T09:52:01.777Z,85.33
2018-03-26T09:53:01.773Z,82.79
2018-03-26T09:54:01.759Z,82.79
2018-03-26T09:55:01.484Z,83.37
2018-03-26T09:56:01.481Z,80.59
2018-03-26T09:57:01.472Z,80.73
2018-03-26T09:58:01.731Z,79.05
2018-03-26T09:59:01.724Z,76.08
2018-03-26T10:00:01.708Z,78.63
2018-03-26T10:01:01.703Z,79.2
2018-03-26T10:02:01.903Z,79
2018-03-26T10:03:01.485Z,80.06
2018-03-26T10:04:01.675Z,81.16
2018-03-26T10:05:01.679Z,81.84
2018-03-26T10:06:01.661Z,80.73
2018-03-26T10:07:01.657Z,79
2018-03-26T10:08:01.382Z,80.35
2018-03-26T10:09:01.380Z,82.35
2018-03-26T10:10:01.629Z,80.3
2018-03-26T10:11:01.620Z,79.87
2018-03-26T10:12:01.349Z,78.86
2018-03-26T10:13:01.340Z,77.51
2018-03-26T10:14:01.804Z,76.65
2018-03-26T10:15:01.326Z,77.23
2018-03-26T10:16:01.321Z,78.13
2018-03-26T10:17:01.316Z,77.55
2018-03-26T10:18:01.308Z,77.08
2018-03-26T10:19:01.297Z,77.33
2018-03-26T10:20:01.311Z,80.35
2018-03-26T10:21:01.559Z,80.87
2018-03-26T10:22:01.560Z,75.73
2018-03-26T10:23:01.278Z,72.23
2018-03-26T10:24:01.534Z,72.38
2018-03-26T10:25:01.530Z,71.04
2018-03-26T10:26:01.518Z,69.89
2018-03-26T10:27:01.510Z,69.23
2018-03-26T10:28:01.523Z,71.87
2018-03-26T10:29:01.520Z,72.54
2018-03-26T10:30:01.231Z,72.34
2018-03-26T10:31:01.604Z,71.48
2018-03-26T10:32:01.227Z,70.05
2018-03-26T10:33:01.481Z,68.8
2018-03-26T10:34:01.481Z,68.8
2018-03-26T10:35:01.205Z,68.71
2018-03-26T10:36:01.197Z,67.5
2018-03-26T10:37:01.451Z,68.17
2018-03-26T10:38:01.191Z,66.77
2018-03-26T10:39:01.550Z,66.67
2018-03-26T10:40:01.171Z,68.68
2018-03-26T10:41:01.452Z,69.32
2018-03-26T10:42:01.165Z,68.27
2018-03-26T10:43:01.427Z,67.63
2018-03-26T10:44:01.442Z,67.72
2018-03-26T10:45:01.475Z,67.34
2018-03-26T10:46:01.404Z,67.09
2018-03-26T10:47:01.404Z,66.13
2018-03-26T10:48:01.455Z,67.82
2018-03-26T10:49:01.517Z,69.6
2018-03-26T10:50:01.120Z,69.32
2018-03-26T10:51:01.274Z,68.3
2018-03-26T10:52:01.375Z,66.67
2018-03-26T10:53:01.374Z,68.59
2018-03-26T10:54:01.104Z,68.49
2018-03-26T10:55:01.099Z,67.82
2018-03-26T10:56:01.357Z,66
2018-03-26T10:57:01.355Z,66.09
2018-03-26T10:58:01.355Z,65.42
2018-03-26T10:59:01.147Z,65.62
2018-03-26T11:00:01.338Z,67.25
2018-03-26T11:01:01.355Z,65.94
2018-03-26T11:02:01.336Z,65.91
2018-03-26T11:03:01.333Z,67.15
2018-03-26T11:04:01.088Z,65.62
2018-03-26T11:05:01.057Z,65.62
2018-03-26T11:06:01.054Z,67.31
2018-03-26T11:07:01.054Z,68.23
2018-03-26T11:08:01.050Z,68.23
2018-03-26T11:09:01.037Z,69.09
2018-03-26T11:10:01.301Z,69.31
2018-03-26T11:11:01.305Z,67.91
2018-03-26T11:12:01.298Z,68.87
2018-03-26T11:13:01.291Z,69.76
2018-03-26T11:14:01.290Z,69.13
2018-03-26T11:15:01.283Z,68.27
2018-03-26T11:16:01.281Z,68.27
2018-03-26T11:17:01.283Z,66.19
2018-03-26T11:18:01.283Z,67.11
2018-03-26T11:19:01.334Z,67.88
2018-03-26T11:20:01.266Z,66.77
2018-03-26T11:21:01.019Z,67.72
2018-03-26T11:22:01.266Z,65.52
2018-03-26T11:23:01.284Z,66.25
2018-03-26T11:24:00.991Z,67.63
2018-03-26T11:25:01.262Z,66.03
2018-03-26T11:26:01.057Z,65.55
2018-03-26T11:27:01.286Z,65.55
2018-03-26T11:28:01.311Z,68.33
2018-03-26T11:29:00.982Z,67.76
2018-03-26T11:30:01.247Z,67.95
2018-03-26T11:31:01.257Z,67.41
2018-03-26T11:32:01.066Z,66.74
2018-03-26T11:33:01.242Z,67.47
2018-03-26T11:34:01.250Z,69.45
2018-03-26T11:35:01.244Z,69.93
2018-03-26T11:36:01.078Z,70.47
2018-03-26T11:37:00.977Z,70.37
2018-03-26T11:38:01.241Z,70.09
2018-03-26T11:39:01.245Z,68.49
2018-03-26T11:40:01.239Z,66.96
2018-03-26T11:41:01.237Z,67.25
2018-03-26T11:42:01.460Z,68.17
2018-03-26T11:43:00.964Z,68.46
2018-03-26T11:44:00.965Z,69.57
2018-03-26T11:45:01.228Z,70.53
2018-03-26T11:46:01.219Z,70.72
2018-03-26T11:47:01.265Z,71.39
2018-03-26T11:48:01.223Z,70.97
2018-03-26T11:49:00.946Z,71.16
2018-03-26T11:50:01.209Z,71.7
2018-03-26T11:51:00.939Z,73.33
2018-03-26T11:52:00.933Z,73.39
2018-03-26T11:53:01.253Z,72.47
2018-03-26T11:54:00.921Z,71.22
2018-03-26T11:55:01.190Z,71.26
2018-03-26T11:56:00.918Z,71.36
2018-03-26T11:57:00.907Z,72.6
2018-03-26T11:58:01.172Z,72.06
2018-03-26T11:59:01.167Z,72.73
2018-03-26T12:00:00.910Z,74.36
2018-03-26T12:01:00.890Z,73.3
2018-03-26T12:02:01.096Z,73.59
2018-03-26T12:03:01.146Z,73.97
2018-03-26T12:04:00.879Z,74.36
2018-03-26T12:05:00.880Z,71.81
2018-03-26T12:06:00.870Z,71.71
2018-03-26T12:07:01.189Z,71.71
2018-03-26T12:08:01.129Z,70.89
2018-03-26T12:09:00.859Z,71.23
2018-03-26T12:10:00.855Z,71.81
2018-03-26T12:11:00.846Z,73.24
2018-03-26T12:12:00.845Z,73.21
2018-03-26T12:13:01.109Z,74.55
2018-03-26T12:14:01.106Z,75.22
2018-03-26T12:15:00.836Z,74.68
2018-03-26T12:16:01.098Z,73.76
2018-03-26T12:17:01.095Z,71.66
2018-03-26T12:18:01.100Z,74.11
2018-03-26T12:19:01.096Z,73.34
2018-03-26T12:20:01.083Z,73.19
2018-03-26T12:21:00.812Z,72.42
2018-03-26T12:22:01.073Z,72.9
2018-03-26T12:23:01.074Z,71.69
2018-03-26T12:24:01.073Z,70.15
2018-03-26T12:25:00.800Z,70.83
2018-03-26T12:26:00.797Z,71.69
2018-03-26T12:27:01.062Z,69.77
2018-03-26T12:28:01.065Z,67.22
2018-03-26T12:29:00.792Z,67.06
2018-03-26T12:30:00.791Z,66.58
2018-03-26T12:31:01.052Z,68.56
2018-03-26T12:32:01.050Z,69.04
2018-03-26T12:33:01.048Z,69.42
2018-03-26T12:34:01.047Z,69.52
2018-03-26T12:35:01.047Z,69.87
2018-03-26T12:36:00.781Z,69.58
2018-03-26T12:37:01.049Z,69.39
2018-03-26T12:38:00.777Z,68.49
2018-03-26T12:39:00.775Z,68.87
2018-03-26T12:40:01.094Z,69.35
2018-03-26T12:41:00.771Z,70.73
2018-03-26T12:42:00.767Z,68.56
2018-03-26T12:43:01.027Z,68.37
2018-03-26T12:44:00.768Z,65.81
2018-03-26T12:45:00.760Z,66.55
2018-03-26T12:46:00.760Z,66.39
2018-03-26T12:47:00.757Z,67.69
2018-03-26T12:48:00.753Z,67.89
2018-03-26T12:49:01.015Z,66.93
2018-03-26T12:50:01.012Z,67.5
2018-03-26T12:51:01.010Z,67.35
2018-03-26T12:52:01.012Z,67.06
2018-03-26T12:53:01.018Z,66.77
2018-03-26T12:54:01.006Z,66.1
2018-03-26T12:55:01.005Z,67.06